createdAt,value
2019-05-18T00:00:56.494Z,39.92
2019-05-18T00:03:31.273Z,39.92
2019-05-18T00:06:05.648Z,39.91
2019-05-18T00:08:40.162Z,40.30
2019-05-18T00:11:14.516Z,40.41
2019-05-18T00:13:48.918Z,40.62
2019-05-18T00:16:23.312Z,40.88
2019-05-18T00:18:57.724Z,40.96
2019-05-18T00:21:31.790Z,41.08
2019-05-18T00:24:06.165Z,41.28
2019-05-18T00:26:40.603Z,41.30
2019-05-18T00:29:15.043Z,41.47
2019-05-18T00:31:49.288Z,41.56
2019-05-18T00:34:23.813Z,41.60
2019-05-18T00:36:57.941Z,41.67
2019-05-18T00:39:32.444Z,41.84
2019-05-18T00:42:06.670Z,41.92
2019-05-18T00:44:40.944Z,41.94
2019-05-18T00:47:15.370Z,41.98
2019-05-18T00:49:49.442Z,41.99
2019-05-18T00:52:23.707Z,42.04
2019-05-18T00:54:57.797Z,42.68
2019-05-18T00:57:32.057Z,44.33
2019-05-18T01:00:08.134Z,43.65
2019-05-18T01:02:42.550Z,43.13
2019-05-18T01:05:16.462Z,42.68
2019-05-18T01:07:50.529Z,42.37
2019-05-18T01:10:24.778Z,41.98
2019-05-18T01:12:59.225Z,41.78
2019-05-18T01:15:33.514Z,41.60
2019-05-18T01:18:07.746Z,42.99
2019-05-18T01:20:41.804Z,42.54
2019-05-18T01:23:16.150Z,42.20
2019-05-18T01:25:50.161Z,41.84
2019-05-18T01:28:24.271Z,41.66
2019-05-18T01:30:57.983Z,41.52
2019-05-18T01:33:31.789Z,41.68
2019-05-18T01:36:06.674Z,41.40
2019-05-18T01:38:40.461Z,41.61
2019-05-18T01:41:14.458Z,41.92
2019-05-18T01:43:48.963Z,41.87
2019-05-18T01:46:23.030Z,42.00
2019-05-18T01:48:57.156Z,42.09
2019-05-18T01:51:31.252Z,42.15
2019-05-18T01:54:05.409Z,42.25
2019-05-18T01:56:39.458Z,42.39
2019-05-18T01:59:13.557Z,42.53
2019-05-18T02:01:47.891Z,42.61
2019-05-18T02:04:22.105Z,42.70
2019-05-18T02:06:56.276Z,43.06
2019-05-18T02:09:30.541Z,42.96
2019-05-18T02:12:04.707Z,43.02
2019-05-18T02:14:38.952Z,43.18
2019-05-18T02:17:12.845Z,43.34
2019-05-18T02:19:46.773Z,43.20
2019-05-18T02:22:20.705Z,43.27
2019-05-18T02:24:54.908Z,43.26
2019-05-18T02:27:29.016Z,43.23
2019-05-18T02:30:02.961Z,43.22
2019-05-18T02:32:37.738Z,43.35
2019-05-18T02:35:11.839Z,43.33
2019-05-18T02:37:46.009Z,43.41
2019-05-18T02:40:20.370Z,43.31
2019-05-18T02:42:54.981Z,43.35
2019-05-18T02:45:29.373Z,43.40
2019-05-18T02:48:03.454Z,43.44
2019-05-18T02:50:37.795Z,43.74
2019-05-18T02:53:12.174Z,43.62
2019-05-18T02:55:46.158Z,43.51
2019-05-18T02:58:20.506Z,43.52
2019-05-18T03:00:54.684Z,44.53
2019-05-18T03:03:29.174Z,44.67
2019-05-18T03:06:03.396Z,44.64
2019-05-18T03:08:37.546Z,44.65
2019-05-18T03:11:12.267Z,44.52
2019-05-18T03:13:46.638Z,44.99
2019-05-18T03:16:21.101Z,44.79
2019-05-18T03:19:07.368Z,44.71
2019-05-18T03:21:32.193Z,44.70
2019-05-18T03:24:06.731Z,44.19
2019-05-18T03:26:40.897Z,43.79
2019-05-18T03:29:15.844Z,43.62
2019-05-18T03:31:49.967Z,43.52
2019-05-18T03:34:24.164Z,43.77
2019-05-18T03:36:58.391Z,43.72
2019-05-18T03:39:32.600Z,43.74
2019-05-18T03:42:06.985Z,43.68
2019-05-18T03:44:41.143Z,43.64
2019-05-18T03:47:15.229Z,43.64
2019-05-18T03:49:50.473Z,43.66
2019-05-18T03:52:24.595Z,43.69
2019-05-18T03:54:58.706Z,43.74
2019-05-18T03:57:33.003Z,43.77
2019-05-18T04:00:07.816Z,44.98
2019-05-18T04:02:41.839Z,45.40
2019-05-18T04:05:16.191Z,46.72
2019-05-18T04:07:50.404Z,46.81
2019-05-18T04:10:30.533Z,46.71
2019-05-18T04:13:04.665Z,46.73
2019-05-18T04:15:38.873Z,46.65
2019-05-18T04:18:13.104Z,46.92
2019-05-18T04:20:47.032Z,47.95
2019-05-18T04:23:21.098Z,48.10
2019-05-18T04:25:56.073Z,48.11
2019-05-18T04:28:30.176Z,50.82
2019-05-18T04:31:04.518Z,51.26
2019-05-18T04:33:38.629Z,51.23
2019-05-18T04:36:12.951Z,51.48
2019-05-18T04:38:46.973Z,51.55
2019-05-18T04:41:21.413Z,51.44
2019-05-18T04:43:55.733Z,51.59
2019-05-18T04:46:29.630Z,51.20
2019-05-18T04:49:03.911Z,50.90
2019-05-18T04:51:38.255Z,50.73
2019-05-18T04:54:12.550Z,50.56
2019-05-18T04:56:47.491Z,50.34
2019-05-18T04:59:21.321Z,50.25
2019-05-18T05:01:55.647Z,50.17
2019-05-18T05:04:29.779Z,50.01
2019-05-18T05:07:04.024Z,49.86
2019-05-18T05:09:38.392Z,49.69
2019-05-18T05:12:13.233Z,49.58
2019-05-18T05:14:59.544Z,49.54
2019-05-18T05:17:33.791Z,49.55
2019-05-18T05:20:19.440Z,49.47
2019-05-18T05:22:44.223Z,49.48
2019-05-18T05:25:18.575Z,50.09
2019-05-18T05:27:52.549Z,50.18
2019-05-18T05:30:26.532Z,50.14
2019-05-18T05:33:00.465Z,49.91
2019-05-18T05:35:37.611Z,49.84
2019-05-18T05:38:11.159Z,49.78
2019-05-18T05:40:45.384Z,49.77
2019-05-18T05:43:19.423Z,49.79
2019-05-18T05:45:53.650Z,49.76
2019-05-18T05:48:27.694Z,49.84
2019-05-18T05:51:02.271Z,49.73
2019-05-18T05:53:36.405Z,49.80
2019-05-18T05:56:10.304Z,49.62
2019-05-18T05:58:44.646Z,49.76
2019-05-18T06:01:18.939Z,49.71
2019-05-18T06:03:52.896Z,49.63
2019-05-18T06:06:26.749Z,49.64
2019-05-18T06:09:00.801Z,49.60
2019-05-18T06:11:35.184Z,49.67
2019-05-18T06:14:09.379Z,49.54
2019-05-18T06:16:43.395Z,49.51
2019-05-18T06:19:17.267Z,49.48
2019-05-18T06:21:51.388Z,49.60
2019-05-18T06:24:25.518Z,49.49
2019-05-18T06:26:59.520Z,49.33
2019-05-18T06:29:33.513Z,49.35
2019-05-18T06:32:07.635Z,49.25
2019-05-18T06:34:41.663Z,49.22
2019-05-18T06:37:15.757Z,49.15
2019-05-18T06:39:50.285Z,49.11
2019-05-18T06:42:24.598Z,49.07
2019-05-18T06:44:58.743Z,48.95
2019-05-18T06:47:33.908Z,49.59
2019-05-18T06:50:11.359Z,49.32
2019-05-18T06:52:43.865Z,49.64
2019-05-18T06:55:18.066Z,50.52
2019-05-18T06:57:52.542Z,50.04
2019-05-18T07:00:26.794Z,50.08
2019-05-18T07:03:02.697Z,50.39
2019-05-18T07:05:36.511Z,50.44
2019-05-18T07:08:13.226Z,50.35
2019-05-18T07:10:47.475Z,50.19
2019-05-18T07:13:21.478Z,50.08
2019-05-18T07:15:55.665Z,49.90
2019-05-18T07:18:29.436Z,49.87
2019-05-18T07:21:03.454Z,49.85
2019-05-18T07:23:37.256Z,50.02
2019-05-18T07:26:11.297Z,49.81
2019-05-18T07:28:45.312Z,49.24
2019-05-18T07:31:19.401Z,48.86
2019-05-18T07:33:53.262Z,48.59
2019-05-18T07:36:27.150Z,48.52
2019-05-18T07:39:01.213Z,48.31
2019-05-18T07:41:46.151Z,48.41
2019-05-18T07:44:20.496Z,48.52
2019-05-18T07:46:54.769Z,48.67
2019-05-18T07:49:28.882Z,48.48
2019-05-18T07:52:02.902Z,48.63
2019-05-18T07:54:36.798Z,48.53
2019-05-18T07:57:13.970Z,48.37
2019-05-18T07:59:47.903Z,48.36
2019-05-18T08:02:22.112Z,48.37
2019-05-18T08:04:56.264Z,48.41
2019-05-18T08:07:30.272Z,48.44
2019-05-18T08:10:04.432Z,48.46
2019-05-18T08:12:38.225Z,48.38
2019-05-18T08:15:13.885Z,48.41
2019-05-18T08:17:47.663Z,48.34
2019-05-18T08:20:21.569Z,48.23
2019-05-18T08:22:55.896Z,48.14
2019-05-18T08:25:30.260Z,48.18
2019-05-18T08:28:08.149Z,48.21
2019-05-18T08:30:42.021Z,48.14
2019-05-18T08:33:16.065Z,48.12
2019-05-18T08:35:50.237Z,48.04
2019-05-18T08:38:24.188Z,48.05
2019-05-18T08:40:58.288Z,48.02
2019-05-18T08:43:32.332Z,47.96
2019-05-18T08:46:06.340Z,47.93
2019-05-18T08:48:40.447Z,47.90
2019-05-18T08:51:14.369Z,47.89
2019-05-18T08:53:48.916Z,47.87
2019-05-18T08:56:23.923Z,47.88
2019-05-18T08:58:57.969Z,48.34
2019-05-18T09:01:31.744Z,48.34
2019-05-18T09:04:05.807Z,47.94
2019-05-18T09:06:39.793Z,47.86
2019-05-18T09:09:13.830Z,47.87
2019-05-18T09:11:47.793Z,47.88
2019-05-18T09:14:21.605Z,47.90
2019-05-18T09:16:55.628Z,47.79
2019-05-18T09:19:29.621Z,47.71
2019-05-18T09:22:03.434Z,47.71
2019-05-18T09:24:37.253Z,47.63
2019-05-18T09:27:13.734Z,47.59
2019-05-18T09:29:47.990Z,47.58
2019-05-18T09:32:22.148Z,47.55
2019-05-18T09:34:57.325Z,47.55
2019-05-18T09:37:31.427Z,47.50
2019-05-18T09:40:05.770Z,47.47
2019-05-18T09:42:39.808Z,47.41
2019-05-18T09:45:15.614Z,47.43
2019-05-18T09:47:49.445Z,47.36
2019-05-18T09:50:23.553Z,47.31
2019-05-18T09:52:57.880Z,47.27
2019-05-18T09:55:31.675Z,47.22
2019-05-18T09:58:06.019Z,47.18
2019-05-18T10:00:40.592Z,47.11
2019-05-18T10:03:15.391Z,47.15
2019-05-18T10:05:49.455Z,47.12
2019-05-18T10:08:23.560Z,47.07
2019-05-18T10:10:57.776Z,47.07
2019-05-18T10:13:33.631Z,46.99
2019-05-18T10:16:07.665Z,46.63
2019-05-18T10:18:42.033Z,46.67
2019-05-18T10:21:16.111Z,46.75
2019-05-18T10:23:50.239Z,46.52
2019-05-18T10:26:24.331Z,47.37
2019-05-18T10:28:58.340Z,46.88
2019-05-18T10:31:32.642Z,46.88
2019-05-18T10:34:06.955Z,45.31
2019-05-18T10:36:40.851Z,44.42
2019-05-18T10:39:15.447Z,43.00
2019-05-18T10:41:49.301Z,41.98
2019-05-18T10:44:23.422Z,40.47
2019-05-18T10:46:57.475Z,39.65
2019-05-18T10:49:31.384Z,39.17
2019-05-18T10:52:05.553Z,38.37
2019-05-18T10:54:39.880Z,37.54
2019-05-18T10:57:14.185Z,37.49
2019-05-18T10:59:48.940Z,36.71
2019-05-18T11:02:22.986Z,36.79
2019-05-18T11:04:57.204Z,37.43
2019-05-18T11:07:31.388Z,36.86
2019-05-18T11:10:05.732Z,36.27
2019-05-18T11:12:40.083Z,36.47
2019-05-18T11:15:15.880Z,36.09
2019-05-18T11:17:50.297Z,35.91
2019-05-18T11:20:24.895Z,35.52
2019-05-18T11:22:58.857Z,35.29
2019-05-18T11:25:33.333Z,35.29
2019-05-18T11:28:07.347Z,34.90
2019-05-18T11:30:41.403Z,34.67
2019-05-18T11:33:15.368Z,37.35
2019-05-18T11:35:49.525Z,37.01
2019-05-18T11:38:23.688Z,36.11
2019-05-18T11:40:57.950Z,35.53
2019-05-18T11:43:32.340Z,35.21
2019-05-18T11:46:06.607Z,34.72
2019-05-18T11:48:40.588Z,34.46
2019-05-18T11:51:14.651Z,34.29
2019-05-18T11:53:57.969Z,34.01
2019-05-18T11:56:24.310Z,33.90
2019-05-18T11:58:58.153Z,34.11
2019-05-18T12:01:32.379Z,34.44
2019-05-18T12:04:06.531Z,34.19
2019-05-18T12:06:40.645Z,33.82
2019-05-18T12:09:14.811Z,33.68
2019-05-18T12:11:48.696Z,33.50
2019-05-18T12:14:22.813Z,33.39
2019-05-18T12:16:57.073Z,33.11
2019-05-18T12:19:30.999Z,32.95
2019-05-18T12:22:04.902Z,32.94
2019-05-18T12:24:38.881Z,32.83
2019-05-18T12:27:13.010Z,32.82
2019-05-18T12:29:46.919Z,32.68
2019-05-18T12:32:20.825Z,32.70
2019-05-18T12:34:55.065Z,32.58
2019-05-18T12:37:28.959Z,32.50
2019-05-18T12:40:03.143Z,32.34
2019-05-18T12:42:37.338Z,32.40
2019-05-18T12:45:13.046Z,32.39
2019-05-18T12:47:48.126Z,32.50
2019-05-18T12:50:22.894Z,32.89
2019-05-18T12:52:56.895Z,33.24
2019-05-18T12:55:31.410Z,33.59
2019-05-18T12:58:05.674Z,34.27
2019-05-18T13:00:40.035Z,34.97
2019-05-18T13:03:14.046Z,35.27
2019-05-18T13:05:48.354Z,35.33
2019-05-18T13:08:23.207Z,35.50
2019-05-18T13:10:57.572Z,35.66
2019-05-18T13:13:31.635Z,35.81
2019-05-18T13:16:05.815Z,36.07
2019-05-18T13:18:39.868Z,36.32
2019-05-18T13:21:14.234Z,36.45
2019-05-18T13:23:48.072Z,36.65
2019-05-18T13:26:22.300Z,36.72
2019-05-18T13:28:56.316Z,36.91
2019-05-18T13:31:30.224Z,37.00
2019-05-18T13:34:04.385Z,37.22
2019-05-18T13:36:38.353Z,37.34
2019-05-18T13:39:12.710Z,37.47
2019-05-18T13:41:46.747Z,37.62
2019-05-18T13:44:21.034Z,37.82
2019-05-18T13:46:54.935Z,37.92
2019-05-18T13:49:29.294Z,38.00
2019-05-18T13:52:03.387Z,38.13
2019-05-18T13:54:37.681Z,38.37
2019-05-18T13:57:11.738Z,38.44
2019-05-18T13:59:45.761Z,38.51
2019-05-18T14:02:20.324Z,38.64
2019-05-18T14:04:54.368Z,38.80
2019-05-18T14:07:28.951Z,38.85
2019-05-18T14:10:03.121Z,38.94
2019-05-18T14:12:37.829Z,38.84
2019-05-18T14:15:13.490Z,38.88
2019-05-18T14:17:47.866Z,39.13
2019-05-18T14:20:22.563Z,39.27
2019-05-18T14:22:56.597Z,39.47
2019-05-18T14:25:31.665Z,39.60
2019-05-18T14:28:06.441Z,39.79
2019-05-18T14:30:40.578Z,39.92
2019-05-18T14:33:14.835Z,39.98
2019-05-18T14:35:48.949Z,40.72
2019-05-18T14:38:23.114Z,40.58
2019-05-18T14:40:56.961Z,40.55
2019-05-18T14:43:32.165Z,40.57
2019-05-18T14:46:06.447Z,40.68
2019-05-18T14:48:40.764Z,40.82
2019-05-18T14:51:14.873Z,40.89
2019-05-18T14:53:48.640Z,40.89
2019-05-18T14:56:22.824Z,40.94
2019-05-18T14:58:57.126Z,40.93
2019-05-18T15:01:31.072Z,40.95
2019-05-18T15:04:04.877Z,41.01
2019-05-18T15:06:39.419Z,40.90
2019-05-18T15:09:13.619Z,40.90
2019-05-18T15:11:47.958Z,41.25
2019-05-18T15:14:22.016Z,41.29
2019-05-18T15:16:56.245Z,41.37
2019-05-18T15:19:30.426Z,41.40
2019-05-18T15:22:04.669Z,41.55
2019-05-18T15:24:38.804Z,41.67
2019-05-18T15:27:12.700Z,41.93
2019-05-18T15:29:47.868Z,42.26
2019-05-18T15:32:21.919Z,42.22
2019-05-18T15:34:56.004Z,42.33
2019-05-18T15:37:30.132Z,42.55
2019-05-18T15:40:04.270Z,42.80
2019-05-18T15:42:38.348Z,43.00
2019-05-18T15:45:12.697Z,43.22
2019-05-18T15:47:46.934Z,43.42
2019-05-18T15:50:21.672Z,43.59
2019-05-18T15:52:55.526Z,43.83
2019-05-18T15:55:29.588Z,43.99
2019-05-18T15:58:03.546Z,44.03
2019-05-18T16:00:37.791Z,43.90
2019-05-18T16:03:14.838Z,43.82
2019-05-18T16:05:48.974Z,43.75
2019-05-18T16:08:23.267Z,43.68
2019-05-18T16:10:57.332Z,43.64
2019-05-18T16:13:31.398Z,43.60
2019-05-18T16:16:05.635Z,43.57
2019-05-18T16:18:39.676Z,43.56
2019-05-18T16:21:13.861Z,43.54
2019-05-18T16:23:48.034Z,43.46
2019-05-18T16:26:22.185Z,43.47
2019-05-18T16:28:56.273Z,43.45
2019-05-18T16:31:30.418Z,43.43
2019-05-18T16:34:04.833Z,43.42
2019-05-18T16:36:39.179Z,43.35
2019-05-18T16:39:13.133Z,43.38
2019-05-18T16:41:47.417Z,43.36
2019-05-18T16:44:21.578Z,43.38
2019-05-18T16:46:55.608Z,43.37
2019-05-18T16:49:29.948Z,43.37
2019-05-18T16:52:04.288Z,43.34
2019-05-18T16:54:38.404Z,43.38
2019-05-18T16:57:12.452Z,43.40
2019-05-18T16:59:46.416Z,43.39
2019-05-18T17:02:31.299Z,43.37
2019-05-18T17:04:57.485Z,43.37
2019-05-18T17:07:31.762Z,43.45
2019-05-18T17:10:06.969Z,43.75
2019-05-18T17:12:41.199Z,43.78
2019-05-18T17:15:16.456Z,43.84
2019-05-18T17:17:50.405Z,43.76
2019-05-18T17:20:24.798Z,43.76
2019-05-18T17:22:59.561Z,43.90
2019-05-18T17:25:33.574Z,42.51
2019-05-18T17:28:07.898Z,39.73
2019-05-18T17:30:42.918Z,39.73
2019-05-18T17:33:17.482Z,38.11
2019-05-18T17:35:59.924Z,37.31
2019-05-18T17:38:27.853Z,36.46
2019-05-18T17:41:01.831Z,36.01
2019-05-18T17:43:35.994Z,36.11
2019-05-18T17:46:09.894Z,37.61
2019-05-18T17:48:44.189Z,39.38
2019-05-18T17:51:18.438Z,38.00
2019-05-18T17:53:53.105Z,36.95
2019-05-18T17:56:27.170Z,35.87
2019-05-18T17:59:01.166Z,35.38
2019-05-18T18:01:35.228Z,34.52
2019-05-18T18:04:09.204Z,33.86
2019-05-18T18:06:43.190Z,33.49
2019-05-18T18:09:17.013Z,33.13
2019-05-18T18:11:50.997Z,33.89
2019-05-18T18:14:24.978Z,34.95
2019-05-18T18:16:59.025Z,34.56
2019-05-18T18:19:33.115Z,34.10
2019-05-18T18:22:07.394Z,33.61
2019-05-18T18:24:41.606Z,33.21
2019-05-18T18:27:24.556Z,33.11
2019-05-18T18:32:23.696Z,33.09
2019-05-18T18:34:57.765Z,33.04
2019-05-18T18:37:31.932Z,32.98
2019-05-18T18:40:06.262Z,33.08
2019-05-18T18:42:40.363Z,33.08
2019-05-18T18:45:15.793Z,33.23
2019-05-18T18:47:49.632Z,33.41
2019-05-18T18:50:23.743Z,33.84
2019-05-18T18:52:57.975Z,34.15
2019-05-18T18:55:32.424Z,34.37
2019-05-18T18:58:06.649Z,34.80
2019-05-18T19:00:40.825Z,34.99
2019-05-18T19:03:15.260Z,35.56
2019-05-18T19:05:49.324Z,35.81
2019-05-18T19:08:23.455Z,35.86
2019-05-18T19:10:57.463Z,36.21
2019-05-18T19:13:31.799Z,36.44
2019-05-18T19:16:05.765Z,36.45
2019-05-18T19:18:39.905Z,36.52
2019-05-18T19:21:13.984Z,36.64
2019-05-18T19:23:48.051Z,36.63
2019-05-18T19:26:22.199Z,36.87
2019-05-18T19:28:56.343Z,37.15
2019-05-18T19:31:30.403Z,38.83
2019-05-18T19:34:04.843Z,40.32
2019-05-18T19:36:38.812Z,41.23
2019-05-18T19:39:13.131Z,40.05
2019-05-18T19:41:47.227Z,39.18
2019-05-18T19:44:23.923Z,38.63
2019-05-18T19:46:57.069Z,38.27
2019-05-18T19:49:31.264Z,37.89
2019-05-18T19:52:05.055Z,37.56
2019-05-18T19:54:39.102Z,37.29
2019-05-18T19:57:13.998Z,37.08
2019-05-18T19:59:48.187Z,37.08
2019-05-18T20:02:22.861Z,36.66
2019-05-18T20:05:07.140Z,36.46
2019-05-18T20:07:33.049Z,36.26
2019-05-18T20:10:07.700Z,36.12
2019-05-18T20:12:42.238Z,36.06
2019-05-18T20:15:16.577Z,35.83
2019-05-18T20:17:50.750Z,35.80
2019-05-18T20:20:24.893Z,37.45
2019-05-18T20:22:58.971Z,37.41
2019-05-18T20:25:32.939Z,37.26
2019-05-18T20:28:06.978Z,37.07
2019-05-18T20:30:41.016Z,36.83
2019-05-18T20:33:15.023Z,36.74
2019-05-18T20:35:49.350Z,36.50
2019-05-18T20:38:23.418Z,36.39
2019-05-18T20:41:57.236Z,36.10
2019-05-18T20:44:31.179Z,37.31
2019-05-18T20:47:05.228Z,38.79
2019-05-18T20:49:39.317Z,39.77
2019-05-18T20:52:13.489Z,39.44
2019-05-18T20:54:47.458Z,38.98
2019-05-18T20:57:21.490Z,38.37
2019-05-18T20:59:55.683Z,37.83
2019-05-18T21:02:29.623Z,37.42
2019-05-18T21:05:03.757Z,37.05
2019-05-18T21:07:37.971Z,36.71
2019-05-18T21:10:12.405Z,36.41
2019-05-18T21:12:46.716Z,36.12
2019-05-18T21:15:21.216Z,35.54
2019-05-18T21:17:55.510Z,35.89
2019-05-18T21:20:29.700Z,36.05
2019-05-18T21:23:04.098Z,36.04
2019-05-18T21:25:38.355Z,35.93
2019-05-18T21:28:12.423Z,35.80
2019-05-18T21:30:47.736Z,35.72
2019-05-18T21:33:21.716Z,35.56
2019-05-18T21:35:55.591Z,35.23
2019-05-18T21:38:29.948Z,34.85
2019-05-18T21:41:03.795Z,35.40
2019-05-18T21:43:38.897Z,35.47
2019-05-18T21:46:13.073Z,35.37
2019-05-18T21:48:47.392Z,35.26
2019-05-18T21:51:21.544Z,35.16
2019-05-18T21:53:55.596Z,35.09
2019-05-18T21:56:29.659Z,35.04
2019-05-18T21:59:11.664Z,34.60
2019-05-18T22:01:39.455Z,34.75
2019-05-18T22:04:13.876Z,35.14
2019-05-18T22:06:47.964Z,35.15
2019-05-18T22:09:22.049Z,35.08
2019-05-18T22:11:56.199Z,35.04
2019-05-18T22:14:30.271Z,35.08
2019-05-18T22:17:04.467Z,35.53
2019-05-18T22:19:38.453Z,35.30
2019-05-18T22:22:12.624Z,34.70
2019-05-18T22:24:46.677Z,35.34
2019-05-18T22:27:20.661Z,36.28
2019-05-18T22:29:54.476Z,36.94
2019-05-18T22:32:28.652Z,37.46
2019-05-18T22:35:02.524Z,37.98
2019-05-18T22:37:36.661Z,38.38
2019-05-18T22:40:10.824Z,38.67
2019-05-18T22:42:44.752Z,39.02
2019-05-18T22:45:18.907Z,39.35
2019-05-18T22:47:53.008Z,39.64
2019-05-18T22:50:27.551Z,39.90
2019-05-18T22:53:01.672Z,40.15
2019-05-18T22:55:35.709Z,40.41
2019-05-18T22:58:09.889Z,40.64
2019-05-18T23:00:43.852Z,40.92
2019-05-18T23:03:17.899Z,41.09
2019-05-18T23:05:52.166Z,41.29
2019-05-18T23:08:26.269Z,41.47
2019-05-18T23:11:00.080Z,41.65
2019-05-18T23:13:34.343Z,41.88
2019-05-18T23:16:08.307Z,42.08
2019-05-18T23:18:55.931Z,42.21
2019-05-18T23:21:18.417Z,42.35
2019-05-18T23:23:52.658Z,42.47
2019-05-18T23:26:26.900Z,42.59
2019-05-18T23:29:01.025Z,42.63
2019-05-18T23:31:35.269Z,42.70
2019-05-18T23:34:09.531Z,42.76
2019-05-18T23:36:43.804Z,42.80
2019-05-18T23:39:18.077Z,42.87
2019-05-18T23:41:51.886Z,42.88
2019-05-18T23:44:26.566Z,42.98
2019-05-18T23:47:00.800Z,42.99
2019-05-18T23:49:35.009Z,43.09
2019-05-18T23:52:09.144Z,43.11
2019-05-18T23:54:43.441Z,43.17
2019-05-18T23:57:17.408Z,43.13
2019-05-18T23:59:51.492Z,43.13
